sensor_id;sensor_type;location;lat;lon;timestamp;P1;P2;P0
53698;PMS7003;68408;53.952;27.612;2024-01-30T00:03:53;14.5;11.5;8.3
53698;PMS7003;68408;53.952;27.612;2024-01-30T00:09:01;13.2;11;8.2
53698;PMS7003;68408;53.952;27.612;2024-01-30T00:13:53;14.4;11.6;8.8
53698;PMS7003;68408;53.952;27.612;2024-01-30T00:19:17;16.8;13;9.5
53698;PMS7003;68408;53.952;27.612;2024-01-30T00:23:53;15.6;11.8;8.9
53698;PMS7003;68408;53.952;27.612;2024-01-30T00:29:31;14.4;12;8.7
53698;PMS7003;68408;53.952;27.612;2024-01-30T00:34:21;16;13.5;9.5
53698;PMS7003;68408;53.952;27.612;2024-01-30T00:39:31;17.6;12.4;8.9
53698;PMS7003;68408;53.952;27.612;2024-01-30T00:44:29;13.5;10.3;7.9
53698;PMS7003;68408;53.952;27.612;2024-01-30T00:48:57;14.9;11.5;8.6
53698;PMS7003;68408;53.952;27.612;2024-01-30T00:54:31;14.8;12.4;9.2
53698;PMS7003;68408;53.952;27.612;2024-01-30T00:58:55;16.4;12.5;9.3
53698;PMS7003;68408;53.952;27.612;2024-01-30T01:04:19;17.4;13.4;10.1
53698;PMS7003;68408;53.952;27.612;2024-01-30T01:09:05;15.9;13.3;9.6
53698;PMS7003;68408;53.952;27.612;2024-01-30T01:14:09;14.5;12.7;9.6
53698;PMS7003;68408;53.952;27.612;2024-01-30T01:18:55;19.4;15.6;11.5
53698;PMS7003;68408;53.952;27.612;2024-01-30T01:24:31;19.5;14.9;10.9
53698;PMS7003;68408;53.952;27.612;2024-01-30T01:29:05;18.2;15.1;10.7
53698;PMS7003;68408;53.952;27.612;2024-01-30T01:34:31;17.5;14.6;10.8
53698;PMS7003;68408;53.952;27.612;2024-01-30T01:39:09;19.7;15.3;11.5
53698;PMS7003;68408;53.952;27.612;2024-01-30T01:43:53;16.5;13.7;9.4
53698;PMS7003;68408;53.952;27.612;2024-01-30T01:48:53;19.6;15.8;11.6
53698;PMS7003;68408;53.952;27.612;2024-01-30T01:53:53;17.6;13.5;9.7
53698;PMS7003;68408;53.952;27.612;2024-01-30T01:58:59;17.4;14.4;10.3
53698;PMS7003;68408;53.952;27.612;2024-01-30T02:03:57;18.2;14.6;11
53698;PMS7003;68408;53.952;27.612;2024-01-30T02:09:09;17.4;13.4;10.3
53698;PMS7003;68408;53.952;27.612;2024-01-30T02:14:03;18.2;14.7;10.4
53698;PMS7003;68408;53.952;27.612;2024-01-30T02:19:05;16.9;14.2;10.2
53698;PMS7003;68408;53.952;27.612;2024-01-30T02:23:53;18.1;15.6;11
53698;PMS7003;68408;53.952;27.612;2024-01-30T02:29:21;18.2;14.5;10.6
53698;PMS7003;68408;53.952;27.612;2024-01-30T02:34:05;17.3;13.6;10.3
53698;PMS7003;68408;53.952;27.612;2024-01-30T02:39:19;16.6;13.3;10
53698;PMS7003;68408;53.952;27.612;2024-01-30T02:44:07;17.4;13.9;10
53698;PMS7003;68408;53.952;27.612;2024-01-30T02:49:17;17.8;14.9;11.1
53698;PMS7003;68408;53.952;27.612;2024-01-30T02:54:31;17.8;14.5;10.9
53698;PMS7003;68408;53.952;27.612;2024-01-30T02:59:31;17.8;14.7;10.5
53698;PMS7003;68408;53.952;27.612;2024-01-30T03:04:17;15.7;13.3;9.7
53698;PMS7003;68408;53.952;27.612;2024-01-30T03:09:31;18.9;14.2;10.4
53698;PMS7003;68408;53.952;27.612;2024-01-30T03:14:17;17.2;14.5;11.1
53698;PMS7003;68408;53.952;27.612;2024-01-30T03:18:53;19.8;14.9;11.1
53698;PMS7003;68408;53.952;27.612;2024-01-30T03:23:57;16.6;14.1;10.6
53698;PMS7003;68408;53.952;27.612;2024-01-30T03:28:57;17.1;14.7;11.2
53698;PMS7003;68408;53.952;27.612;2024-01-30T03:34:33;18.1;14;10.9
53698;PMS7003;68408;53.952;27.612;2024-01-30T03:39:09;19.2;16.2;11.9
53698;PMS7003;68408;53.952;27.612;2024-01-30T03:44:21;19.2;15;10.7
53698;PMS7003;68408;53.952;27.612;2024-01-30T03:49:07;20.3;15.6;11.4
53698;PMS7003;68408;53.952;27.612;2024-01-30T03:54:33;18.6;15.5;11.8
53698;PMS7003;68408;53.952;27.612;2024-01-30T03:59:03;20.6;16.7;12
53698;PMS7003;68408;53.952;27.612;2024-01-30T04:04:33;18.1;14.6;10.4
53698;PMS7003;68408;53.952;27.612;2024-01-30T04:08:59;20.4;17.5;13
53698;PMS7003;68408;53.952;27.612;2024-01-30T04:14:21;20.4;16.9;12.8
53698;PMS7003;68408;53.952;27.612;2024-01-30T04:19:07;19.6;16.1;11.2
53698;PMS7003;68408;53.952;27.612;2024-01-30T04:24:33;21.4;18.5;13.3
53698;PMS7003;68408;53.952;27.612;2024-01-30T04:29:33;18.1;15;10.4
53698;PMS7003;68408;53.952;27.612;2024-01-30T04:34:22;22.8;17.7;12.3
53698;PMS7003;68408;53.952;27.612;2024-01-30T04:39:05;22.3;19.2;14.3
53698;PMS7003;68408;53.952;27.612;2024-01-30T04:44:33;23.8;19.3;14.4
53698;PMS7003;68408;53.952;27.612;2024-01-30T04:49:07;23.6;18.2;13.7
53698;PMS7003;68408;53.952;27.612;2024-01-30T04:54:21;22.8;18.8;14.2
53698;PMS7003;68408;53.952;27.612;2024-01-30T04:58:59;23.1;17.8;13.3
53698;PMS7003;68408;53.952;27.612;2024-01-30T05:04:07;22.4;18.6;13.6
53698;PMS7003;68408;53.952;27.612;2024-01-30T05:09:21;24.6;20.1;14.6
53698;PMS7003;68408;53.952;27.612;2024-01-30T05:13:59;25.1;19.6;14.3
53698;PMS7003;68408;53.952;27.612;2024-01-30T05:18:53;22.6;19.1;14.6
53698;PMS7003;68408;53.952;27.612;2024-01-30T05:24:01;24.5;19.5;14.4
53698;PMS7003;68408;53.952;27.612;2024-01-30T05:29:11;23.4;19.6;14.2
53698;PMS7003;68408;53.952;27.612;2024-01-30T05:33:54;25.4;20;14.5
53698;PMS7003;68408;53.952;27.612;2024-01-30T05:39:31;22;17.2;12.7
53698;PMS7003;68408;53.952;27.612;2024-01-30T05:44:21;24.3;19.5;14.1
53698;PMS7003;68408;53.952;27.612;2024-01-30T05:49:05;26.5;21.3;15.2
53698;PMS7003;68408;53.952;27.612;2024-01-30T05:53:53;19.3;17;12.8
53698;PMS7003;68408;53.952;27.612;2024-01-30T05:59:17;24.3;19.6;14.3
53698;PMS7003;68408;53.952;27.612;2024-01-30T06:04:21;24.2;19.2;14.3
53698;PMS7003;68408;53.952;27.612;2024-01-30T06:08:53;22.7;19.8;14.8
53698;PMS7003;68408;53.952;27.612;2024-01-30T06:14:11;25;21;15.8
53698;PMS7003;68408;53.952;27.612;2024-01-30T06:19:01;23.2;18.8;14
53698;PMS7003;68408;53.952;27.612;2024-01-30T06:24:29;24.6;19.3;14
53698;PMS7003;68408;53.952;27.612;2024-01-30T06:28:53;25.5;20.2;14.5
53698;PMS7003;68408;53.952;27.612;2024-01-30T06:34:22;22.6;17.9;13.2
53698;PMS7003;68408;53.952;27.612;2024-01-30T06:38:59;22;18.6;13
53698;PMS7003;68408;53.952;27.612;2024-01-30T06:43:53;25.7;21.2;14.3
53698;PMS7003;68408;53.952;27.612;2024-01-30T06:48:53;25.7;20.6;15.4
53698;PMS7003;68408;53.952;27.612;2024-01-30T06:54:01;25.3;19.8;13.9
53698;PMS7003;68408;53.952;27.612;2024-01-30T06:58:53;22.9;18.2;13.1
53698;PMS7003;68408;53.952;27.612;2024-01-30T07:04:09;20.7;16.6;10.5
53698;PMS7003;68408;53.952;27.612;2024-01-30T07:09:07;27.1;21.7;15.6
53698;PMS7003;68408;53.952;27.612;2024-01-30T07:14:31;25.6;21.3;15.9
53698;PMS7003;68408;53.952;27.612;2024-01-30T07:19:31;24.9;20.9;14.5
53698;PMS7003;68408;53.952;27.612;2024-01-30T07:24:29;23.6;19.3;12.7
53698;PMS7003;68408;53.952;27.612;2024-01-30T07:29:05;26.1;20.6;15
53698;PMS7003;68408;53.952;27.612;2024-01-30T07:34:09;25.4;20.2;14.8
53698;PMS7003;68408;53.952;27.612;2024-01-30T07:39:21;25.9;20.3;14.6
53698;PMS7003;68408;53.952;27.612;2024-01-30T07:44:05;23.4;18.6;13.2
53698;PMS7003;68408;53.952;27.612;2024-01-30T07:48:57;25.2;19.7;14.1
53698;PMS7003;68408;53.952;27.612;2024-01-30T07:53:59;25.3;19.7;14.6
53698;PMS7003;68408;53.952;27.612;2024-01-30T07:59:29;20.3;16.9;12.8
53698;PMS7003;68408;53.952;27.612;2024-01-30T08:04:09;25.8;20.8;15.2
53698;PMS7003;68408;53.952;27.612;2024-01-30T08:09:19;26.7;22.2;16.4
53698;PMS7003;68408;53.952;27.612;2024-01-30T08:14:15;23.3;18.9;13
53698;PMS7003;68408;53.952;27.612;2024-01-30T08:18:53;23.9;19.3;14.3
53698;PMS7003;68408;53.952;27.612;2024-01-30T08:23:53;25.7;21.4;16.1
53698;PMS7003;68408;53.952;27.612;2024-01-30T08:28:53;24.9;20.1;14.6
53698;PMS7003;68408;53.952;27.612;2024-01-30T08:33:54;26.1;22.2;15.9
53698;PMS7003;68408;53.952;27.612;2024-01-30T08:39:29;27;22.2;15.7
53698;PMS7003;68408;53.952;27.612;2024-01-30T08:44:08;27.1;21.4;15.7
53698;PMS7003;68408;53.952;27.612;2024-01-30T08:49:05;24.8;21;15.6
53698;PMS7003;68408;53.952;27.612;2024-01-30T08:54:30;25.6;21;15.6
53698;PMS7003;68408;53.952;27.612;2024-01-30T08:58:53;27.4;22.4;16
53698;PMS7003;68408;53.952;27.612;2024-01-30T09:04:29;27.6;23.4;16.7
53698;PMS7003;68408;53.952;27.612;2024-01-30T09:09:29;23.1;19;13.6
53698;PMS7003;68408;53.952;27.612;2024-01-30T09:14:19;27;21.8;15.9
53698;PMS7003;68408;53.952;27.612;2024-01-30T09:18:53;25.9;21.3;15.5
53698;PMS7003;68408;53.952;27.612;2024-01-30T09:24:15;28.8;23.5;16
53698;PMS7003;68408;53.952;27.612;2024-01-30T09:29:31;27.1;22.5;16.1
53698;PMS7003;68408;53.952;27.612;2024-01-30T09:34:32;26.4;22.1;16.1
53698;PMS7003;68408;53.952;27.612;2024-01-30T09:38:59;26.6;21.6;16.2
53698;PMS7003;68408;53.952;27.612;2024-01-30T09:44:32;26.3;21.3;15.8
53698;PMS7003;68408;53.952;27.612;2024-01-30T09:49:32;27;22.3;16
53698;PMS7003;68408;53.952;27.612;2024-01-30T09:53:54;30.3;23;16.8
53698;PMS7003;68408;53.952;27.612;2024-01-30T09:59:05;27.1;21.8;16.3
53698;PMS7003;68408;53.952;27.612;2024-01-30T10:03:59;26.7;21.2;15.5
53698;PMS7003;68408;53.952;27.612;2024-01-30T10:09:00;27.1;22.2;15.8
53698;PMS7003;68408;53.952;27.612;2024-01-30T10:13:53;30;24.7;18
53698;PMS7003;68408;53.952;27.612;2024-01-30T10:19:21;27.1;21.9;15.5
53698;PMS7003;68408;53.952;27.612;2024-01-30T10:24:09;29.5;24;17
53698;PMS7003;68408;53.952;27.612;2024-01-30T10:29:32;29.3;25.6;17.8
53698;PMS7003;68408;53.952;27.612;2024-01-30T10:34:01;28.3;23.8;17
53698;PMS7003;68408;53.952;27.612;2024-01-30T10:39:31;26.5;22;16.1
53698;PMS7003;68408;53.952;27.612;2024-01-30T10:44:10;27.6;22.9;16.3
53698;PMS7003;68408;53.952;27.612;2024-01-30T10:49:09;28.6;24.1;16.7
53698;PMS7003;68408;53.952;27.612;2024-01-30T10:53:55;24.8;20.5;14.1
53698;PMS7003;68408;53.952;27.612;2024-01-30T10:59:09;29.4;24;17.3
53698;PMS7003;68408;53.952;27.612;2024-01-30T11:04:21;30.3;24.4;17.5
53698;PMS7003;68408;53.952;27.612;2024-01-30T11:09:22;30.6;24.4;17.4
53698;PMS7003;68408;53.952;27.612;2024-01-30T11:14:12;28;23.4;17.6
53698;PMS7003;68408;53.952;27.612;2024-01-30T11:19:32;29.2;25.1;17.7
53698;PMS7003;68408;53.952;27.612;2024-01-30T11:24:09;29.7;24.5;17.1
53698;PMS7003;68408;53.952;27.612;2024-01-30T11:29:03;28.4;23;16.3
53698;PMS7003;68408;53.952;27.612;2024-01-30T11:34:06;31.3;24.4;17.3
53698;PMS7003;68408;53.952;27.612;2024-01-30T11:38:57;29.2;25.4;18.6
53698;PMS7003;68408;53.952;27.612;2024-01-30T11:44:12;31.2;24.9;16.5
53698;PMS7003;68408;53.952;27.612;2024-01-30T11:48:54;30.5;25.7;17.5
53698;PMS7003;68408;53.952;27.612;2024-01-30T11:54:21;30.4;25.4;17.6
53698;PMS7003;68408;53.952;27.612;2024-01-30T11:58:54;30.2;25.5;17.8
53698;PMS7003;68408;53.952;27.612;2024-01-30T12:04:30;31.8;25.9;18.1
53698;PMS7003;68408;53.952;27.612;2024-01-30T12:09:08;34;28.2;19.3
53698;PMS7003;68408;53.952;27.612;2024-01-30T12:14:30;29.1;23.4;16.6
53698;PMS7003;68408;53.952;27.612;2024-01-30T12:19:00;29.4;24.9;16.7
53698;PMS7003;68408;53.952;27.612;2024-01-30T12:24:22;32.1;26.3;17.8
53698;PMS7003;68408;53.952;27.612;2024-01-30T12:29:22;31.3;25.4;17.7
53698;PMS7003;68408;53.952;27.612;2024-01-30T12:34:16;31.3;25.8;18.6
53698;PMS7003;68408;53.952;27.612;2024-01-30T12:39:16;30.4;24.5;17.9
53698;PMS7003;68408;53.952;27.612;2024-01-30T12:44:20;31.5;26.7;18.3
53698;PMS7003;68408;53.952;27.612;2024-01-30T12:49:10;32.3;26;18.3
53698;PMS7003;68408;53.952;27.612;2024-01-30T12:54:28;29.7;26;19.1
53698;PMS7003;68408;53.952;27.612;2024-01-30T12:59:30;31.5;27;19
53698;PMS7003;68408;53.952;27.612;2024-01-30T13:04:22;31.2;26.2;18.9
53698;PMS7003;68408;53.952;27.612;2024-01-30T13:08:58;30.4;25.6;18.2
53698;PMS7003;68408;53.952;27.612;2024-01-30T13:13:58;35.7;29.8;20.7
53698;PMS7003;68408;53.952;27.612;2024-01-30T13:18:54;32.1;26.2;18.7
53698;PMS7003;68408;53.952;27.612;2024-01-30T13:23:54;30.9;25;18.8
53698;PMS7003;68408;53.952;27.612;2024-01-30T13:28:58;34;27.5;19.8
53698;PMS7003;68408;53.952;27.612;2024-01-30T13:34:02;30.5;24.5;16.5
53698;PMS7003;68408;53.952;27.612;2024-01-30T13:39:10;31.8;26.4;19.2
53698;PMS7003;68408;53.952;27.612;2024-01-30T13:44:00;26.3;21.6;15.4
53698;PMS7003;68408;53.952;27.612;2024-01-30T13:49:14;33.5;28.2;19
53698;PMS7003;68408;53.952;27.612;2024-01-30T13:54:22;26.7;22.5;15.5
53698;PMS7003;68408;53.952;27.612;2024-01-30T13:59:12;35.4;28;20.2
53698;PMS7003;68408;53.952;27.612;2024-01-30T14:04:06;34.1;27.6;19.7
53698;PMS7003;68408;53.952;27.612;2024-01-30T14:09:16;32.2;26.9;19.7
53698;PMS7003;68408;53.952;27.612;2024-01-30T14:14:20;31.2;26.7;18.4
53698;PMS7003;68408;53.952;27.612;2024-01-30T14:19:08;32.9;27.2;19.2
53698;PMS7003;68408;53.952;27.612;2024-01-30T14:23:54;34.1;26.7;18.9
53698;PMS7003;68408;53.952;27.612;2024-01-30T14:29:28;31.1;27.4;18.6
53698;PMS7003;68408;53.952;27.612;2024-01-30T14:34:28;33.2;25.8;18.8
53698;PMS7003;68408;53.952;27.612;2024-01-30T14:39:06;30.6;25.4;18.4
53698;PMS7003;68408;53.952;27.612;2024-01-30T14:44:20;28.7;23.5;15.7
53698;PMS7003;68408;53.952;27.612;2024-01-30T14:48:54;31.7;25.3;18.9
53698;PMS7003;68408;53.952;27.612;2024-01-30T14:53:54;32.3;25.8;18.8
53698;PMS7003;68408;53.952;27.612;2024-01-30T14:59:02;34.8;28.5;19.7
53698;PMS7003;68408;53.952;27.612;2024-01-30T15:03:54;33.4;27.3;19.7
53698;PMS7003;68408;53.952;27.612;2024-01-30T15:08:58;33.8;27.4;17.9
53698;PMS7003;68408;53.952;27.612;2024-01-30T15:14:16;31.8;25.8;18.1
53698;PMS7003;68408;53.952;27.612;2024-01-30T15:18:54;30.6;25.6;17.6
53698;PMS7003;68408;53.952;27.612;2024-01-30T15:24:28;30.4;24.3;17.9
53698;PMS7003;68408;53.952;27.612;2024-01-30T15:29:08;30.9;24.7;17
53698;PMS7003;68408;53.952;27.612;2024-01-30T15:34:08;31.8;26.5;19.1
53698;PMS7003;68408;53.952;27.612;2024-01-30T15:38:54;30.7;24.9;16.5
53698;PMS7003;68408;53.952;27.612;2024-01-30T15:44:16;31.7;26.9;18.6
53698;PMS7003;68408;53.952;27.612;2024-01-30T15:49:08;31.5;26;18.6
53698;PMS7003;68408;53.952;27.612;2024-01-30T15:53:54;34.7;27.6;19.1
53698;PMS7003;68408;53.952;27.612;2024-01-30T15:58:54;28.3;23.5;17.2
53698;PMS7003;68408;53.952;27.612;2024-01-30T16:04:20;32.4;26.1;18.6
53698;PMS7003;68408;53.952;27.612;2024-01-30T16:09:28;33.2;26.2;18.3
53698;PMS7003;68408;53.952;27.612;2024-01-30T16:14:10;29.9;24.3;17.5
53698;PMS7003;68408;53.952;27.612;2024-01-30T16:19:12;32.4;26.4;18.9
53698;PMS7003;68408;53.952;27.612;2024-01-30T16:24:04;32.6;25.1;17.2
53698;PMS7003;68408;53.952;27.612;2024-01-30T16:28:54;30.2;25.4;18.4
53698;PMS7003;68408;53.952;27.612;2024-01-30T16:33:54;31.2;26;17.8
53698;PMS7003;68408;53.952;27.612;2024-01-30T16:38:58;28.8;22.4;15.1
53698;PMS7003;68408;53.952;27.612;2024-01-30T16:44:20;29.2;24.4;17.6
53698;PMS7003;68408;53.952;27.612;2024-01-30T16:49:28;31;24.3;17.8
53698;PMS7003;68408;53.952;27.612;2024-01-30T16:54:20;29.5;24.1;17.6
53698;PMS7003;68408;53.952;27.612;2024-01-30T16:59:28;28.2;24.3;17
53698;PMS7003;68408;53.952;27.612;2024-01-30T17:04:14;29.6;24.6;17.3
53698;PMS7003;68408;53.952;27.612;2024-01-30T17:08:54;29.3;25.1;17.7
53698;PMS7003;68408;53.952;27.612;2024-01-30T17:14:20;29.3;23.5;16.5
53698;PMS7003;68408;53.952;27.612;2024-01-30T17:19:32;28.4;24.3;17.1
53698;PMS7003;68408;53.952;27.612;2024-01-30T17:24:22;29;24.5;17.6
53698;PMS7003;68408;53.952;27.612;2024-01-30T17:28:54;27.9;23.5;16.4
53698;PMS7003;68408;53.952;27.612;2024-01-30T17:34:02;29.5;24.6;17.3
53698;PMS7003;68408;53.952;27.612;2024-01-30T17:39:22;30;25.1;17.9
53698;PMS7003;68408;53.952;27.612;2024-01-30T17:44:32;30.2;25.3;17.8
53698;PMS7003;68408;53.952;27.612;2024-01-30T17:48:54;29.5;24;17.2
53698;PMS7003;68408;53.952;27.612;2024-01-30T17:54:33;29.8;24.3;17.1
53698;PMS7003;68408;53.952;27.612;2024-01-30T17:59:22;27.2;22;15.5
53698;PMS7003;68408;53.952;27.612;2024-01-30T18:03:55;27;22.8;16.4
53698;PMS7003;68408;53.952;27.612;2024-01-30T18:08:54;25.8;22.4;15.4
53698;PMS7003;68408;53.952;27.612;2024-01-30T18:13:54;29.5;23.4;16.1
53698;PMS7003;68408;53.952;27.612;2024-01-30T18:18:54;27.2;23.2;15.1
53698;PMS7003;68408;53.952;27.612;2024-01-30T18:23:54;27.3;22.1;16.1
53698;PMS7003;68408;53.952;27.612;2024-01-30T18:29:22;29.5;23.9;17.9
53698;PMS7003;68408;53.952;27.612;2024-01-30T18:33:54;28.6;23.9;15.9
53698;PMS7003;68408;53.952;27.612;2024-01-30T18:39:33;30.5;24.7;17.3
53698;PMS7003;68408;53.952;27.612;2024-01-30T18:44:08;26.3;20.9;14.3
53698;PMS7003;68408;53.952;27.612;2024-01-30T18:49:32;28;22.9;16.3
53698;PMS7003;68408;53.952;27.612;2024-01-30T18:54:08;26.9;22.5;16.8
53698;PMS7003;68408;53.952;27.612;2024-01-30T18:58:56;30.3;23.3;16.5
53698;PMS7003;68408;53.952;27.612;2024-01-30T19:04:02;25.4;21.2;14.6
53698;PMS7003;68408;53.952;27.612;2024-01-30T19:09:19;29.7;23.2;16.3
53698;PMS7003;68408;53.952;27.612;2024-01-30T19:14:32;26.8;22.3;16.8
53698;PMS7003;68408;53.952;27.612;2024-01-30T19:19:08;29.8;23.3;17.1
53698;PMS7003;68408;53.952;27.612;2024-01-30T19:24:06;27.7;23.2;16.8
53698;PMS7003;68408;53.952;27.612;2024-01-30T19:29:32;29.1;23.5;16.2
53698;PMS7003;68408;53.952;27.612;2024-01-30T19:34:06;30.7;23.8;16.7
53698;PMS7003;68408;53.952;27.612;2024-01-30T19:39:09;30.3;23.3;16.5
53698;PMS7003;68408;53.952;27.612;2024-01-30T19:44:06;28.9;22.9;16.9
53698;PMS7003;68408;53.952;27.612;2024-01-30T19:49:08;28.3;23.7;16.1
53698;PMS7003;68408;53.952;27.612;2024-01-30T19:54:00;28.8;23;16.6
53698;PMS7003;68408;53.952;27.612;2024-01-30T19:58:54;29.8;25.4;17.9
53698;PMS7003;68408;53.952;27.612;2024-01-30T20:04:22;28.2;23.5;16.8
53698;PMS7003;68408;53.952;27.612;2024-01-30T20:09:14;28.8;24.8;17.7
53698;PMS7003;68408;53.952;27.612;2024-01-30T20:14:32;27.3;22.6;17.3
53698;PMS7003;68408;53.952;27.612;2024-01-30T20:19:08;29.8;25;17.9
53698;PMS7003;68408;53.952;27.612;2024-01-30T20:24:32;30.3;24.4;17.3
53698;PMS7003;68408;53.952;27.612;2024-01-30T20:29:10;30;25.5;17.8
53698;PMS7003;68408;53.952;27.612;2024-01-30T20:34:16;28.3;23.1;16.6
53698;PMS7003;68408;53.952;27.612;2024-01-30T20:39:06;30.1;22.7;16.4
53698;PMS7003;68408;53.952;27.612;2024-01-30T20:44:18;29.3;24.6;17.1
53698;PMS7003;68408;53.952;27.612;2024-01-30T20:49:22;28.2;24.6;17
53698;PMS7003;68408;53.952;27.612;2024-01-30T20:54:14;26.3;22.4;15.3
53698;PMS7003;68408;53.952;27.612;2024-01-30T20:59:06;27.2;22.7;16.4
53698;PMS7003;68408;53.952;27.612;2024-01-30T21:04:32;30.4;25.5;17
53698;PMS7003;68408;53.952;27.612;2024-01-30T21:09:32;29.1;24.7;17.8
53698;PMS7003;68408;53.952;27.612;2024-01-30T21:14:22;30.1;25.3;17.9
53698;PMS7003;68408;53.952;27.612;2024-01-30T21:19:06;27.7;22.9;16.3
53698;PMS7003;68408;53.952;27.612;2024-01-30T21:24:08;29.6;24.8;17.1
53698;PMS7003;68408;53.952;27.612;2024-01-30T21:28:54;30.3;23.9;17.2
53698;PMS7003;68408;53.952;27.612;2024-01-30T21:33:54;33.5;27.2;19.1
53698;PMS7003;68408;53.952;27.612;2024-01-30T21:39:00;30.9;24.2;17.5
53698;PMS7003;68408;53.952;27.612;2024-01-30T21:43:54;30.3;24.8;17.2
53698;PMS7003;68408;53.952;27.612;2024-01-30T21:49:12;28.7;22.4;15.2
53698;PMS7003;68408;53.952;27.612;2024-01-30T21:54:00;28.9;23.5;16.9
53698;PMS7003;68408;53.952;27.612;2024-01-30T21:59:32;29.8;23.7;17.4
53698;PMS7003;68408;53.952;27.612;2024-01-30T22:04:22;25.8;22.2;15.5
53698;PMS7003;68408;53.952;27.612;2024-01-30T22:09:04;28.3;24.4;17.1
53698;PMS7003;68408;53.952;27.612;2024-01-30T22:14:08;26.1;21.8;16.3
53698;PMS7003;68408;53.952;27.612;2024-01-30T22:19:04;30;23.1;16.6
53698;PMS7003;68408;53.952;27.612;2024-01-30T22:24:22;23;20.2;14.1
53698;PMS7003;68408;53.952;27.612;2024-01-30T22:28:58;28.4;23.2;16.9
53698;PMS7003;68408;53.952;27.612;2024-01-30T22:34:22;29.1;23.7;16.8
53698;PMS7003;68408;53.952;27.612;2024-01-30T22:39:22;24.6;19.9;13.8
53698;PMS7003;68408;53.952;27.612;2024-01-30T22:44:32;28.1;22;15.9
53698;PMS7003;68408;53.952;27.612;2024-01-30T22:48:54;24.2;19.5;13.5
53698;PMS7003;68408;53.952;27.612;2024-01-30T22:54:22;23.9;21.5;15.6
53698;PMS7003;68408;53.952;27.612;2024-01-30T22:59:04;26;21.8;15.3
53698;PMS7003;68408;53.952;27.612;2024-01-30T23:04:22;25.5;21.1;15.1
53698;PMS7003;68408;53.952;27.612;2024-01-30T23:09:16;27.9;22.9;16.6
53698;PMS7003;68408;53.952;27.612;2024-01-30T23:13:54;24.1;19.3;13.8
53698;PMS7003;68408;53.952;27.612;2024-01-30T23:18:54;26.7;20.8;14.6
53698;PMS7003;68408;53.952;27.612;2024-01-30T23:24:32;27;21.4;15.9
53698;PMS7003;68408;53.952;27.612;2024-01-30T23:29:22;24.9;22;16
53698;PMS7003;68408;53.952;27.612;2024-01-30T23:34:32;24.8;20.3;15
53698;PMS7003;68408;53.952;27.612;2024-01-30T23:39:22;27.8;21.9;16.2
53698;PMS7003;68408;53.952;27.612;2024-01-30T23:44:18;26.8;21.2;15.9
53698;PMS7003;68408;53.952;27.612;2024-01-30T23:49:08;27.6;22.3;15.4
53698;PMS7003;68408;53.952;27.612;2024-01-30T23:54:02;27.1;22.9;16
53698;PMS7003;68408;53.952;27.612;2024-01-30T23:59:22;26.3;22.5;16.5
